Aérodrome :
LOGIN :

S'inscrire | Disclaimer

   EN    FR    IT 

 










Légende :    VFR   VFR Marginal   IFR   IFR Intensif   IFR Très Intensif
Visi : 
Plafond : 
>= 8 km
>= 3000ft
5 à 8 km
1000 à 3000 ft
1500m à 5 km
500 à 1000 ft
800 à 1500m
200 à 500 ft
< 800m
< 200 ft
Symboles :   Orages  Brouillard  Fortes neiges  Fortes précipitations  Vent > 20 kt
SIGMETs :   Divers  Orages  Givrage  Turbulence  Onde Orograph.  Cendres Volcan.






- Altitude de l'aérodrome : 1046 ft
- Code IATA : NUE


EDDN - Nuremberg

DERNIER METAR :
  • 221450Z 28012KT 8000 -RADZ FEW004 BKN006 04/03 Q1030 TEMPO BKN010

METARs EXPIRÉS :
  • 221420Z 28010KT 5000 -RADZ FEW004 BKN006 03/03 Q1030 TEMPO BKN010
  • 221350Z 28010KT 5000 -RADZ FEW004 BKN006 03/03 Q1030 TEMPO BKN010
  • 221320Z 28012KT 5000 -RADZ FEW004 BKN006 03/03 Q1030 TEMPO BKN010
  • 221250Z 28011KT 5000 -RADZ FEW004 BKN006 03/03 Q1030 TEMPO BKN010
  • 221220Z 28010KT 6000 -RADZ BKN006 03/03 Q1030 TEMPO BKN010

TAF TAF EDDN
Valide du 22 à 12h jusqu'au 23 à 12h UTC


221100Z 2212/2312 28009KT 9999 BKN009
PROB30
TEMPO 2212/2214 BKN012
TEMPO 2214/2307 2000 -DZRA BKN004
BECMG 2217/2219 30004KT
BECMG 2309/2312 BKN012



MET'MAP, la Météo Aéronautique d'un coup d'oeil ! - Copyright ORBIFLY Décembre 2007 - Disclaimer

ORBIFLY MET'MAP TEAM :

Programmation & Développement : Alexandra Zaïnal
Sur une idée originale de : Baudouin d'Aumeries
Assistance à la programmation : Marc-Olivier Méhu
Soutien technique & logistique : Manuel Goepfert

Contact : metmap@orbifly.com




SOURCES & CREDITS :

   NOAA